sensor_id;sensor_type;location;lat;lon;timestamp;P1;durP1;ratioP1;P2;durP2;ratioP2
19167;SDS011;9716;53.114;18.040;2023-06-14T00:00:34;8.30;;;2.85;;
19167;SDS011;9716;53.114;18.040;2023-06-14T00:03:38;3.92;;;2.60;;
19167;SDS011;9716;53.114;18.040;2023-06-14T00:06:15;3.80;;;2.55;;
19167;SDS011;9716;53.114;18.040;2023-06-14T00:08:54;6.68;;;2.30;;
19167;SDS011;9716;53.114;18.040;2023-06-14T00:11:30;3.90;;;2.40;;
19167;SDS011;9716;53.114;18.040;2023-06-14T00:14:12;4.28;;;2.75;;
19167;SDS011;9716;53.114;18.040;2023-06-14T00:16:45;2.97;;;2.00;;
19167;SDS011;9716;53.114;18.040;2023-06-14T00:19:18;3.97;;;2.55;;
19167;SDS011;9716;53.114;18.040;2023-06-14T00:22:04;5.72;;;2.65;;
19167;SDS011;9716;53.114;18.040;2023-06-14T00:25:19;2.35;;;1.73;;
19167;SDS011;9716;53.114;18.040;2023-06-14T00:28:00;4.88;;;2.63;;
19167;SDS011;9716;53.114;18.040;2023-06-14T00:30:41;3.78;;;2.30;;
19167;SDS011;9716;53.114;18.040;2023-06-14T00:33:19;3.65;;;2.53;;
19167;SDS011;9716;53.114;18.040;2023-06-14T00:35:55;2.78;;;1.85;;
19167;SDS011;9716;53.114;18.040;2023-06-14T00:38:42;4.18;;;2.80;;
19167;SDS011;9716;53.114;18.040;2023-06-14T00:41:22;5.88;;;2.05;;
19167;SDS011;9716;53.114;18.040;2023-06-14T00:44:04;2.47;;;2.08;;
19167;SDS011;9716;53.114;18.040;2023-06-14T00:46:46;6.78;;;2.50;;
19167;SDS011;9716;53.114;18.040;2023-06-14T00:49:24;3.35;;;2.08;;
19167;SDS011;9716;53.114;18.040;2023-06-14T00:52:03;5.55;;;2.70;;
19167;SDS011;9716;53.114;18.040;2023-06-14T00:54:46;2.20;;;2.00;;
19167;SDS011;9716;53.114;18.040;2023-06-14T00:57:31;3.38;;;2.17;;
19167;SDS011;9716;53.114;18.040;2023-06-14T01:00:08;3.78;;;2.20;;
19167;SDS011;9716;53.114;18.040;2023-06-14T01:02:46;5.25;;;2.33;;
19167;SDS011;9716;53.114;18.040;2023-06-14T01:05:22;6.30;;;2.45;;
19167;SDS011;9716;53.114;18.040;2023-06-14T01:08:05;5.22;;;2.30;;
19167;SDS011;9716;53.114;18.040;2023-06-14T01:10:57;4.97;;;2.00;;
19167;SDS011;9716;53.114;18.040;2023-06-14T01:13:56;3.88;;;2.13;;
19167;SDS011;9716;53.114;18.040;2023-06-14T01:17:18;3.63;;;2.45;;
19167;SDS011;9716;53.114;18.040;2023-06-14T01:20:45;3.20;;;2.15;;
19167;SDS011;9716;53.114;18.040;2023-06-14T01:23:38;2.72;;;1.90;;
19167;SDS011;9716;53.114;18.040;2023-06-14T01:27:11;3.05;;;2.13;;
19167;SDS011;9716;53.114;18.040;2023-06-14T01:30:09;7.35;;;2.28;;
19167;SDS011;9716;53.114;18.040;2023-06-14T01:36:25;3.17;;;2.13;;
19167;SDS011;9716;53.114;18.040;2023-06-14T01:39:48;2.97;;;1.80;;
19167;SDS011;9716;53.114;18.040;2023-06-14T01:42:25;3.33;;;2.20;;
19167;SDS011;9716;53.114;18.040;2023-06-14T01:44:57;2.42;;;1.95;;
19167;SDS011;9716;53.114;18.040;2023-06-14T01:47:34;5.38;;;2.25;;
19167;SDS011;9716;53.114;18.040;2023-06-14T01:50:13;1.90;;;1.75;;
19167;SDS011;9716;53.114;18.040;2023-06-14T01:52:55;4.00;;;1.85;;
19167;SDS011;9716;53.114;18.040;2023-06-14T01:55:43;6.47;;;2.15;;
19167;SDS011;9716;53.114;18.040;2023-06-14T01:58:33;3.53;;;1.70;;
19167;SDS011;9716;53.114;18.040;2023-06-14T02:01:23;3.55;;;2.30;;
19167;SDS011;9716;53.114;18.040;2023-06-14T02:04:06;2.90;;;2.22;;
19167;SDS011;9716;53.114;18.040;2023-06-14T02:06:37;3.95;;;2.45;;
19167;SDS011;9716;53.114;18.040;2023-06-14T02:09:11;3.65;;;1.95;;
19167;SDS011;9716;53.114;18.040;2023-06-14T02:11:57;2.13;;;1.80;;
19167;SDS011;9716;53.114;18.040;2023-06-14T02:14:34;2.72;;;2.10;;
19167;SDS011;9716;53.114;18.040;2023-06-14T02:17:07;3.80;;;2.00;;
19167;SDS011;9716;53.114;18.040;2023-06-14T02:19:47;4.25;;;2.33;;
19167;SDS011;9716;53.114;18.040;2023-06-14T02:22:29;2.63;;;2.28;;
19167;SDS011;9716;53.114;18.040;2023-06-14T02:25:05;3.33;;;2.35;;
19167;SDS011;9716;53.114;18.040;2023-06-14T02:27:40;3.47;;;2.63;;
19167;SDS011;9716;53.114;18.040;2023-06-14T02:30:16;7.65;;;3.15;;
19167;SDS011;9716;53.114;18.040;2023-06-14T02:34:32;11.55;;;2.83;;
19167;SDS011;9716;53.114;18.040;2023-06-14T02:36:56;7.65;;;3.00;;
19167;SDS011;9716;53.114;18.040;2023-06-14T02:40:08;5.90;;;2.72;;
19167;SDS011;9716;53.114;18.040;2023-06-14T02:43:15;3.15;;;2.30;;
19167;SDS011;9716;53.114;18.040;2023-06-14T02:46:14;2.70;;;2.10;;
19167;SDS011;9716;53.114;18.040;2023-06-14T02:50:07;5.68;;;3.63;;
19167;SDS011;9716;53.114;18.040;2023-06-14T02:57:14;5.07;;;2.97;;
19167;SDS011;9716;53.114;18.040;2023-06-14T03:04:06;5.10;;;3.10;;
19167;SDS011;9716;53.114;18.040;2023-06-14T03:07:49;5.00;;;2.80;;
19167;SDS011;9716;53.114;18.040;2023-06-14T03:11:07;6.97;;;3.38;;
19167;SDS011;9716;53.114;18.040;2023-06-14T03:14:22;6.53;;;3.33;;
19167;SDS011;9716;53.114;18.040;2023-06-14T03:17:24;7.78;;;3.80;;
19167;SDS011;9716;53.114;18.040;2023-06-14T03:20:02;4.40;;;3.13;;
19167;SDS011;9716;53.114;18.040;2023-06-14T03:26:14;8.30;;;2.97;;
19167;SDS011;9716;53.114;18.040;2023-06-14T03:28:55;7.13;;;3.13;;
19167;SDS011;9716;53.114;18.040;2023-06-14T03:32:33;8.35;;;3.13;;
19167;SDS011;9716;53.114;18.040;2023-06-14T03:35:37;7.32;;;3.33;;
19167;SDS011;9716;53.114;18.040;2023-06-14T03:38:21;4.80;;;2.92;;
19167;SDS011;9716;53.114;18.040;2023-06-14T03:41:14;7.78;;;2.70;;
19167;SDS011;9716;53.114;18.040;2023-06-14T03:44:03;6.45;;;3.17;;
19167;SDS011;9716;53.114;18.040;2023-06-14T03:47:04;7.45;;;3.80;;
19167;SDS011;9716;53.114;18.040;2023-06-14T03:50:12;5.20;;;2.95;;
19167;SDS011;9716;53.114;18.040;2023-06-14T03:52:51;5.00;;;2.92;;
19167;SDS011;9716;53.114;18.040;2023-06-14T03:55:45;6.55;;;3.60;;
19167;SDS011;9716;53.114;18.040;2023-06-14T03:58:28;4.32;;;3.08;;
19167;SDS011;9716;53.114;18.040;2023-06-14T04:01:42;5.68;;;3.03;;
19167;SDS011;9716;53.114;18.040;2023-06-14T04:04:38;6.22;;;3.50;;
19167;SDS011;9716;53.114;18.040;2023-06-14T04:11:47;4.78;;;2.60;;
19167;SDS011;9716;53.114;18.040;2023-06-14T04:14:45;6.95;;;3.50;;
19167;SDS011;9716;53.114;18.040;2023-06-14T04:19:57;13.38;;;3.20;;
19167;SDS011;9716;53.114;18.040;2023-06-14T04:22:15;5.75;;;3.17;;
19167;SDS011;9716;53.114;18.040;2023-06-14T04:25:37;7.95;;;3.58;;
19167;SDS011;9716;53.114;18.040;2023-06-14T04:29:43;8.57;;;3.28;;
19167;SDS011;9716;53.114;18.040;2023-06-14T04:46:50;7.20;;;3.20;;
19167;SDS011;9716;53.114;18.040;2023-06-14T04:49:20;6.10;;;2.90;;
19167;SDS011;9716;53.114;18.040;2023-06-14T04:51:53;6.63;;;3.38;;
19167;SDS011;9716;53.114;18.040;2023-06-14T04:54:24;5.50;;;2.97;;
19167;SDS011;9716;53.114;18.040;2023-06-14T04:56:52;9.57;;;2.72;;
19167;SDS011;9716;53.114;18.040;2023-06-14T04:59:22;3.65;;;2.40;;
19167;SDS011;9716;53.114;18.040;2023-06-14T05:01:51;7.65;;;3.60;;
19167;SDS011;9716;53.114;18.040;2023-06-14T05:04:21;4.00;;;2.90;;
19167;SDS011;9716;53.114;18.040;2023-06-14T05:06:49;5.80;;;2.67;;
19167;SDS011;9716;53.114;18.040;2023-06-14T05:09:18;7.70;;;4.00;;
19167;SDS011;9716;53.114;18.040;2023-06-14T05:11:46;12.38;;;3.30;;
19167;SDS011;9716;53.114;18.040;2023-06-14T05:14:15;6.20;;;3.28;;
19167;SDS011;9716;53.114;18.040;2023-06-14T05:16:44;9.23;;;3.33;;
19167;SDS011;9716;53.114;18.040;2023-06-14T05:19:17;7.65;;;3.78;;
19167;SDS011;9716;53.114;18.040;2023-06-14T05:21:45;12.00;;;3.33;;
19167;SDS011;9716;53.114;18.040;2023-06-14T05:24:14;10.30;;;3.42;;
19167;SDS011;9716;53.114;18.040;2023-06-14T05:26:43;8.18;;;3.40;;
19167;SDS011;9716;53.114;18.040;2023-06-14T05:29:12;7.03;;;3.42;;
19167;SDS011;9716;53.114;18.040;2023-06-14T05:31:41;6.93;;;3.72;;
19167;SDS011;9716;53.114;18.040;2023-06-14T05:34:10;12.70;;;3.63;;
19167;SDS011;9716;53.114;18.040;2023-06-14T05:36:40;7.45;;;3.53;;
19167;SDS011;9716;53.114;18.040;2023-06-14T05:39:08;6.68;;;2.95;;
19167;SDS011;9716;53.114;18.040;2023-06-14T05:41:37;9.07;;;2.90;;
19167;SDS011;9716;53.114;18.040;2023-06-14T05:44:05;8.70;;;3.53;;
19167;SDS011;9716;53.114;18.040;2023-06-14T05:46:34;8.93;;;4.25;;
19167;SDS011;9716;53.114;18.040;2023-06-14T05:49:03;4.53;;;3.22;;
19167;SDS011;9716;53.114;18.040;2023-06-14T05:51:32;6.63;;;3.03;;
19167;SDS011;9716;53.114;18.040;2023-06-14T05:54:02;7.90;;;3.25;;
19167;SDS011;9716;53.114;18.040;2023-06-14T05:56:30;4.55;;;3.13;;
19167;SDS011;9716;53.114;18.040;2023-06-14T05:58:59;6.50;;;3.67;;
19167;SDS011;9716;53.114;18.040;2023-06-14T06:01:28;5.57;;;3.75;;
19167;SDS011;9716;53.114;18.040;2023-06-14T06:03:57;6.32;;;3.40;;
19167;SDS011;9716;53.114;18.040;2023-06-14T06:06:26;3.85;;;2.78;;
19167;SDS011;9716;53.114;18.040;2023-06-14T06:08:55;5.75;;;3.03;;
19167;SDS011;9716;53.114;18.040;2023-06-14T06:11:25;7.28;;;3.13;;
19167;SDS011;9716;53.114;18.040;2023-06-14T06:14:06;5.25;;;3.00;;
19167;SDS011;9716;53.114;18.040;2023-06-14T06:16:35;6.72;;;3.03;;
19167;SDS011;9716;53.114;18.040;2023-06-14T06:19:03;6.93;;;3.13;;
19167;SDS011;9716;53.114;18.040;2023-06-14T06:21:32;6.03;;;2.70;;
19167;SDS011;9716;53.114;18.040;2023-06-14T06:24:01;4.97;;;2.95;;
19167;SDS011;9716;53.114;18.040;2023-06-14T06:26:33;21.00;;;2.95;;
19167;SDS011;9716;53.114;18.040;2023-06-14T06:29:02;6.53;;;3.60;;
19167;SDS011;9716;53.114;18.040;2023-06-14T06:31:30;12.10;;;3.30;;
19167;SDS011;9716;53.114;18.040;2023-06-14T06:33:59;7.05;;;3.05;;
19167;SDS011;9716;53.114;18.040;2023-06-14T06:36:28;5.13;;;2.70;;
19167;SDS011;9716;53.114;18.040;2023-06-14T06:38:57;14.18;;;3.47;;
19167;SDS011;9716;53.114;18.040;2023-06-14T06:41:25;5.45;;;3.40;;
19167;SDS011;9716;53.114;18.040;2023-06-14T06:43:56;5.57;;;3.13;;
19167;SDS011;9716;53.114;18.040;2023-06-14T06:46:24;5.35;;;2.92;;
19167;SDS011;9716;53.114;18.040;2023-06-14T06:48:54;3.92;;;2.75;;
19167;SDS011;9716;53.114;18.040;2023-06-14T06:51:22;13.65;;;3.17;;
19167;SDS011;9716;53.114;18.040;2023-06-14T06:53:52;4.60;;;2.70;;
19167;SDS011;9716;53.114;18.040;2023-06-14T06:56:21;9.45;;;2.83;;
19167;SDS011;9716;53.114;18.040;2023-06-14T06:58:51;9.88;;;2.85;;
19167;SDS011;9716;53.114;18.040;2023-06-14T07:01:21;5.50;;;3.42;;
19167;SDS011;9716;53.114;18.040;2023-06-14T07:03:51;5.40;;;2.97;;
19167;SDS011;9716;53.114;18.040;2023-06-14T07:06:19;6.18;;;2.70;;
19167;SDS011;9716;53.114;18.040;2023-06-14T07:08:48;8.65;;;3.90;;
19167;SDS011;9716;53.114;18.040;2023-06-14T07:11:17;9.23;;;3.15;;
19167;SDS011;9716;53.114;18.040;2023-06-14T07:13:46;7.75;;;2.97;;
19167;SDS011;9716;53.114;18.040;2023-06-14T07:16:14;4.93;;;2.78;;
19167;SDS011;9716;53.114;18.040;2023-06-14T07:18:44;5.50;;;3.05;;
19167;SDS011;9716;53.114;18.040;2023-06-14T07:21:12;6.57;;;3.38;;
19167;SDS011;9716;53.114;18.040;2023-06-14T07:23:41;5.15;;;2.83;;
19167;SDS011;9716;53.114;18.040;2023-06-14T07:26:10;4.32;;;2.63;;
19167;SDS011;9716;53.114;18.040;2023-06-14T07:28:38;4.82;;;3.15;;
19167;SDS011;9716;53.114;18.040;2023-06-14T07:31:07;5.97;;;2.78;;
19167;SDS011;9716;53.114;18.040;2023-06-14T07:33:35;6.13;;;3.13;;
19167;SDS011;9716;53.114;18.040;2023-06-14T07:36:06;15.70;;;3.03;;
19167;SDS011;9716;53.114;18.040;2023-06-14T07:38:34;6.28;;;2.85;;
19167;SDS011;9716;53.114;18.040;2023-06-14T07:41:03;5.90;;;2.67;;
19167;SDS011;9716;53.114;18.040;2023-06-14T07:43:32;4.35;;;3.17;;
19167;SDS011;9716;53.114;18.040;2023-06-14T07:46:00;4.45;;;2.58;;
19167;SDS011;9716;53.114;18.040;2023-06-14T07:48:34;4.55;;;3.30;;
19167;SDS011;9716;53.114;18.040;2023-06-14T07:51:02;4.55;;;2.67;;
19167;SDS011;9716;53.114;18.040;2023-06-14T07:53:32;8.60;;;2.80;;
19167;SDS011;9716;53.114;18.040;2023-06-14T07:56:00;8.35;;;2.55;;
19167;SDS011;9716;53.114;18.040;2023-06-14T07:58:29;7.97;;;2.85;;
19167;SDS011;9716;53.114;18.040;2023-06-14T08:00:58;5.97;;;3.00;;
19167;SDS011;9716;53.114;18.040;2023-06-14T08:03:28;3.63;;;2.60;;
19167;SDS011;9716;53.114;18.040;2023-06-14T08:05:57;6.97;;;2.92;;
19167;SDS011;9716;53.114;18.040;2023-06-14T08:08:26;17.10;;;3.67;;
19167;SDS011;9716;53.114;18.040;2023-06-14T08:10:56;4.40;;;2.83;;
19167;SDS011;9716;53.114;18.040;2023-06-14T08:13:24;9.80;;;3.03;;
19167;SDS011;9716;53.114;18.040;2023-06-14T08:15:53;6.28;;;3.00;;
19167;SDS011;9716;53.114;18.040;2023-06-14T08:18:22;5.93;;;2.90;;
19167;SDS011;9716;53.114;18.040;2023-06-14T08:20:50;3.60;;;2.50;;
19167;SDS011;9716;53.114;18.040;2023-06-14T08:23:21;7.22;;;2.75;;
19167;SDS011;9716;53.114;18.040;2023-06-14T08:25:49;10.93;;;3.03;;
19167;SDS011;9716;53.114;18.040;2023-06-14T08:28:19;7.82;;;2.58;;
19167;SDS011;9716;53.114;18.040;2023-06-14T08:30:48;12.70;;;2.97;;
19167;SDS011;9716;53.114;18.040;2023-06-14T08:33:18;11.05;;;3.17;;
19167;SDS011;9716;53.114;18.040;2023-06-14T08:35:46;9.82;;;2.80;;
19167;SDS011;9716;53.114;18.040;2023-06-14T08:38:16;12.93;;;3.65;;
19167;SDS011;9716;53.114;18.040;2023-06-14T08:40:44;9.95;;;3.20;;
19167;SDS011;9716;53.114;18.040;2023-06-14T08:43:15;14.35;;;3.10;;
19167;SDS011;9716;53.114;18.040;2023-06-14T08:45:45;6.25;;;2.65;;
19167;SDS011;9716;53.114;18.040;2023-06-14T08:48:17;12.65;;;2.83;;
19167;SDS011;9716;53.114;18.040;2023-06-14T08:50:48;5.13;;;2.80;;
19167;SDS011;9716;53.114;18.040;2023-06-14T08:53:21;6.70;;;2.97;;
19167;SDS011;9716;53.114;18.040;2023-06-14T08:55:50;5.30;;;2.45;;
19167;SDS011;9716;53.114;18.040;2023-06-14T08:58:20;9.35;;;2.25;;
19167;SDS011;9716;53.114;18.040;2023-06-14T09:00:52;8.25;;;2.53;;
19167;SDS011;9716;53.114;18.040;2023-06-14T09:03:21;11.82;;;3.55;;
19167;SDS011;9716;53.114;18.040;2023-06-14T09:05:51;12.07;;;3.10;;
19167;SDS011;9716;53.114;18.040;2023-06-14T09:08:21;4.32;;;2.25;;
19167;SDS011;9716;53.114;18.040;2023-06-14T09:10:50;6.28;;;2.33;;
19167;SDS011;9716;53.114;18.040;2023-06-14T09:13:18;6.82;;;3.03;;
19167;SDS011;9716;53.114;18.040;2023-06-14T09:15:47;4.70;;;2.03;;
19167;SDS011;9716;53.114;18.040;2023-06-14T09:18:17;8.95;;;3.05;;
19167;SDS011;9716;53.114;18.040;2023-06-14T09:20:47;5.80;;;2.63;;
19167;SDS011;9716;53.114;18.040;2023-06-14T09:23:20;4.00;;;2.30;;
19167;SDS011;9716;53.114;18.040;2023-06-14T09:25:49;4.15;;;2.30;;
19167;SDS011;9716;53.114;18.040;2023-06-14T09:28:18;7.60;;;3.00;;
19167;SDS011;9716;53.114;18.040;2023-06-14T09:30:49;6.03;;;3.17;;
19167;SDS011;9716;53.114;18.040;2023-06-14T09:33:19;9.00;;;2.97;;
19167;SDS011;9716;53.114;18.040;2023-06-14T09:35:50;3.53;;;2.17;;
19167;SDS011;9716;53.114;18.040;2023-06-14T09:38:19;6.18;;;2.53;;
19167;SDS011;9716;53.114;18.040;2023-06-14T09:40:49;4.65;;;2.30;;
19167;SDS011;9716;53.114;18.040;2023-06-14T09:43:18;3.90;;;2.38;;
19167;SDS011;9716;53.114;18.040;2023-06-14T09:45:48;13.27;;;2.95;;
19167;SDS011;9716;53.114;18.040;2023-06-14T09:48:19;10.18;;;2.80;;
19167;SDS011;9716;53.114;18.040;2023-06-14T09:50:49;2.80;;;2.20;;
19167;SDS011;9716;53.114;18.040;2023-06-14T09:53:20;10.30;;;2.58;;
19167;SDS011;9716;53.114;18.040;2023-06-14T09:55:50;8.18;;;2.60;;
19167;SDS011;9716;53.114;18.040;2023-06-14T09:58:22;10.80;;;2.63;;
19167;SDS011;9716;53.114;18.040;2023-06-14T10:00:52;6.55;;;2.25;;
19167;SDS011;9716;53.114;18.040;2023-06-14T10:03:25;7.45;;;2.40;;
19167;SDS011;9716;53.114;18.040;2023-06-14T10:06:15;8.98;;;2.88;;
19167;SDS011;9716;53.114;18.040;2023-06-14T10:08:45;8.82;;;2.58;;
19167;SDS011;9716;53.114;18.040;2023-06-14T10:11:14;3.90;;;2.38;;
19167;SDS011;9716;53.114;18.040;2023-06-14T10:13:45;6.38;;;2.20;;
19167;SDS011;9716;53.114;18.040;2023-06-14T10:16:15;3.88;;;2.42;;
19167;SDS011;9716;53.114;18.040;2023-06-14T10:18:51;2.97;;;2.15;;
19167;SDS011;9716;53.114;18.040;2023-06-14T10:21:28;4.45;;;2.38;;
19167;SDS011;9716;53.114;18.040;2023-06-14T10:24:05;4.43;;;2.53;;
19167;SDS011;9716;53.114;18.040;2023-06-14T10:26:40;4.53;;;2.47;;
19167;SDS011;9716;53.114;18.040;2023-06-14T10:29:18;5.82;;;2.63;;
19167;SDS011;9716;53.114;18.040;2023-06-14T10:31:48;5.05;;;3.00;;
19167;SDS011;9716;53.114;18.040;2023-06-14T10:34:24;5.90;;;2.30;;
19167;SDS011;9716;53.114;18.040;2023-06-14T10:37:00;7.38;;;2.55;;
19167;SDS011;9716;53.114;18.040;2023-06-14T10:39:31;4.13;;;2.45;;
19167;SDS011;9716;53.114;18.040;2023-06-14T10:42:01;5.07;;;2.05;;
19167;SDS011;9716;53.114;18.040;2023-06-14T10:44:38;7.35;;;2.47;;
19167;SDS011;9716;53.114;18.040;2023-06-14T10:47:21;6.38;;;2.78;;
19167;SDS011;9716;53.114;18.040;2023-06-14T10:50:02;8.27;;;2.92;;
19167;SDS011;9716;53.114;18.040;2023-06-14T10:52:33;10.35;;;2.45;;
19167;SDS011;9716;53.114;18.040;2023-06-14T10:55:03;3.00;;;2.20;;
19167;SDS011;9716;53.114;18.040;2023-06-14T10:57:36;5.22;;;2.45;;
19167;SDS011;9716;53.114;18.040;2023-06-14T11:00:18;8.68;;;2.67;;
19167;SDS011;9716;53.114;18.040;2023-06-14T11:03:06;10.27;;;2.55;;
19167;SDS011;9716;53.114;18.040;2023-06-14T11:06:14;8.35;;;2.10;;
19167;SDS011;9716;53.114;18.040;2023-06-14T11:11:56;5.13;;;2.63;;
19167;SDS011;9716;53.114;18.040;2023-06-14T11:14:24;12.13;;;2.55;;
19167;SDS011;9716;53.114;18.040;2023-06-14T11:16:53;12.13;;;2.50;;
19167;SDS011;9716;53.114;18.040;2023-06-14T11:19:21;5.38;;;2.28;;
19167;SDS011;9716;53.114;18.040;2023-06-14T11:21:52;9.02;;;2.40;;
19167;SDS011;9716;53.114;18.040;2023-06-14T11:24:20;3.10;;;1.80;;
19167;SDS011;9716;53.114;18.040;2023-06-14T11:26:49;2.88;;;2.30;;
19167;SDS011;9716;53.114;18.040;2023-06-14T11:29:19;3.33;;;1.98;;
19167;SDS011;9716;53.114;18.040;2023-06-14T11:31:49;2.53;;;2.00;;
19167;SDS011;9716;53.114;18.040;2023-06-14T11:34:18;9.63;;;2.65;;
19167;SDS011;9716;53.114;18.040;2023-06-14T11:36:46;3.72;;;2.40;;
19167;SDS011;9716;53.114;18.040;2023-06-14T11:39:16;6.75;;;2.78;;
19167;SDS011;9716;53.114;18.040;2023-06-14T11:41:45;5.13;;;2.30;;
19167;SDS011;9716;53.114;18.040;2023-06-14T11:44:14;4.57;;;2.35;;
19167;SDS011;9716;53.114;18.040;2023-06-14T11:46:42;8.32;;;3.03;;
19167;SDS011;9716;53.114;18.040;2023-06-14T11:49:12;3.92;;;2.30;;
19167;SDS011;9716;53.114;18.040;2023-06-14T11:51:42;4.35;;;2.30;;
19167;SDS011;9716;53.114;18.040;2023-06-14T11:54:11;5.75;;;2.67;;
19167;SDS011;9716;53.114;18.040;2023-06-14T11:56:41;3.97;;;2.40;;
19167;SDS011;9716;53.114;18.040;2023-06-14T11:59:10;6.72;;;2.13;;
19167;SDS011;9716;53.114;18.040;2023-06-14T12:01:42;5.68;;;2.22;;
19167;SDS011;9716;53.114;18.040;2023-06-14T12:04:11;3.50;;;2.10;;
19167;SDS011;9716;53.114;18.040;2023-06-14T12:06:40;2.88;;;2.00;;
19167;SDS011;9716;53.114;18.040;2023-06-14T12:09:09;4.90;;;2.88;;
19167;SDS011;9716;53.114;18.040;2023-06-14T12:11:45;3.75;;;2.35;;
19167;SDS011;9716;53.114;18.040;2023-06-14T12:14:14;3.22;;;2.15;;
19167;SDS011;9716;53.114;18.040;2023-06-14T12:16:43;9.27;;;2.20;;
19167;SDS011;9716;53.114;18.040;2023-06-14T12:19:12;4.10;;;2.42;;
19167;SDS011;9716;53.114;18.040;2023-06-14T12:21:42;8.38;;;2.65;;
19167;SDS011;9716;53.114;18.040;2023-06-14T12:24:15;5.32;;;2.63;;
19167;SDS011;9716;53.114;18.040;2023-06-14T12:26:45;4.40;;;1.98;;
19167;SDS011;9716;53.114;18.040;2023-06-14T12:29:14;3.25;;;2.28;;
19167;SDS011;9716;53.114;18.040;2023-06-14T12:31:43;2.75;;;2.00;;
19167;SDS011;9716;53.114;18.040;2023-06-14T12:34:11;6.85;;;2.45;;
19167;SDS011;9716;53.114;18.040;2023-06-14T12:36:40;4.95;;;2.05;;
19167;SDS011;9716;53.114;18.040;2023-06-14T12:39:11;7.22;;;2.22;;
19167;SDS011;9716;53.114;18.040;2023-06-14T12:41:41;3.50;;;2.25;;
19167;SDS011;9716;53.114;18.040;2023-06-14T12:44:11;4.22;;;2.10;;
19167;SDS011;9716;53.114;18.040;2023-06-14T12:46:41;6.68;;;2.47;;
19167;SDS011;9716;53.114;18.040;2023-06-14T12:49:10;4.72;;;2.42;;
19167;SDS011;9716;53.114;18.040;2023-06-14T12:51:39;3.45;;;2.25;;
19167;SDS011;9716;53.114;18.040;2023-06-14T12:54:08;6.05;;;2.75;;
19167;SDS011;9716;53.114;18.040;2023-06-14T12:56:37;3.85;;;2.25;;
19167;SDS011;9716;53.114;18.040;2023-06-14T12:59:06;6.10;;;2.85;;
19167;SDS011;9716;53.114;18.040;2023-06-14T13:01:37;2.80;;;2.35;;
19167;SDS011;9716;53.114;18.040;2023-06-14T13:04:06;5.10;;;2.35;;
19167;SDS011;9716;53.114;18.040;2023-06-14T13:06:35;3.95;;;2.67;;
19167;SDS011;9716;53.114;18.040;2023-06-14T13:09:04;4.03;;;2.45;;
19167;SDS011;9716;53.114;18.040;2023-06-14T13:11:35;8.00;;;3.15;;
19167;SDS011;9716;53.114;18.040;2023-06-14T13:14:04;4.47;;;2.80;;
19167;SDS011;9716;53.114;18.040;2023-06-14T13:16:52;4.90;;;3.10;;
19167;SDS011;9716;53.114;18.040;2023-06-14T13:19:22;5.03;;;2.55;;
19167;SDS011;9716;53.114;18.040;2023-06-14T13:21:50;6.03;;;2.50;;
19167;SDS011;9716;53.114;18.040;2023-06-14T13:24:19;5.82;;;3.05;;
19167;SDS011;9716;53.114;18.040;2023-06-14T13:26:47;6.40;;;3.00;;
19167;SDS011;9716;53.114;18.040;2023-06-14T13:29:16;8.88;;;2.65;;
19167;SDS011;9716;53.114;18.040;2023-06-14T13:31:44;4.25;;;2.65;;
19167;SDS011;9716;53.114;18.040;2023-06-14T13:34:14;4.22;;;2.85;;
19167;SDS011;9716;53.114;18.040;2023-06-14T13:36:43;5.05;;;3.10;;
19167;SDS011;9716;53.114;18.040;2023-06-14T13:39:11;8.23;;;2.42;;
19167;SDS011;9716;53.114;18.040;2023-06-14T13:41:40;3.75;;;2.20;;
19167;SDS011;9716;53.114;18.040;2023-06-14T13:44:09;8.32;;;3.33;;
19167;SDS011;9716;53.114;18.040;2023-06-14T13:46:43;6.50;;;3.17;;
19167;SDS011;9716;53.114;18.040;2023-06-14T13:49:11;11.23;;;2.67;;
19167;SDS011;9716;53.114;18.040;2023-06-14T13:51:41;5.35;;;2.78;;
19167;SDS011;9716;53.114;18.040;2023-06-14T13:54:11;4.75;;;2.78;;
19167;SDS011;9716;53.114;18.040;2023-06-14T13:56:41;4.57;;;2.40;;
19167;SDS011;9716;53.114;18.040;2023-06-14T13:59:09;11.30;;;2.92;;
19167;SDS011;9716;53.114;18.040;2023-06-14T14:01:39;8.98;;;2.60;;
19167;SDS011;9716;53.114;18.040;2023-06-14T14:04:07;5.88;;;2.60;;
19167;SDS011;9716;53.114;18.040;2023-06-14T14:06:36;4.45;;;2.53;;
19167;SDS011;9716;53.114;18.040;2023-06-14T14:09:06;3.97;;;2.53;;
19167;SDS011;9716;53.114;18.040;2023-06-14T14:11:36;2.65;;;2.00;;
19167;SDS011;9716;53.114;18.040;2023-06-14T14:14:06;4.78;;;2.67;;
19167;SDS011;9716;53.114;18.040;2023-06-14T14:16:35;5.45;;;2.53;;
19167;SDS011;9716;53.114;18.040;2023-06-14T14:19:04;8.43;;;2.53;;
19167;SDS011;9716;53.114;18.040;2023-06-14T14:21:33;4.65;;;2.70;;
19167;SDS011;9716;53.114;18.040;2023-06-14T14:24:02;4.65;;;2.92;;
19167;SDS011;9716;53.114;18.040;2023-06-14T14:26:33;12.07;;;2.95;;
19167;SDS011;9716;53.114;18.040;2023-06-14T14:29:02;5.32;;;2.90;;
19167;SDS011;9716;53.114;18.040;2023-06-14T14:31:30;4.55;;;2.45;;
19167;SDS011;9716;53.114;18.040;2023-06-14T14:33:59;8.13;;;2.33;;
19167;SDS011;9716;53.114;18.040;2023-06-14T14:36:28;4.28;;;2.83;;
19167;SDS011;9716;53.114;18.040;2023-06-14T14:38:56;6.22;;;1.92;;
19167;SDS011;9716;53.114;18.040;2023-06-14T14:41:25;4.00;;;2.45;;
19167;SDS011;9716;53.114;18.040;2023-06-14T14:43:54;6.50;;;2.92;;
19167;SDS011;9716;53.114;18.040;2023-06-14T14:46:24;6.65;;;2.72;;
19167;SDS011;9716;53.114;18.040;2023-06-14T14:48:52;4.30;;;2.30;;
19167;SDS011;9716;53.114;18.040;2023-06-14T14:51:21;7.28;;;2.60;;
19167;SDS011;9716;53.114;18.040;2023-06-14T14:53:49;2.92;;;1.85;;
19167;SDS011;9716;53.114;18.040;2023-06-14T14:56:22;2.65;;;1.90;;
19167;SDS011;9716;53.114;18.040;2023-06-14T14:58:50;2.80;;;1.83;;
19167;SDS011;9716;53.114;18.040;2023-06-14T15:01:20;4.55;;;1.70;;
19167;SDS011;9716;53.114;18.040;2023-06-14T15:03:49;4.50;;;2.25;;
19167;SDS011;9716;53.114;18.040;2023-06-14T15:06:25;3.55;;;1.75;;
19167;SDS011;9716;53.114;18.040;2023-06-14T15:08:54;7.10;;;1.60;;
19167;SDS011;9716;53.114;18.040;2023-06-14T15:11:24;3.97;;;2.00;;
19167;SDS011;9716;53.114;18.040;2023-06-14T15:13:53;3.70;;;1.48;;
19167;SDS011;9716;53.114;18.040;2023-06-14T15:16:23;3.20;;;1.80;;
19167;SDS011;9716;53.114;18.040;2023-06-14T15:18:52;5.07;;;2.15;;
19167;SDS011;9716;53.114;18.040;2023-06-14T15:21:21;2.20;;;1.63;;
19167;SDS011;9716;53.114;18.040;2023-06-14T15:23:49;3.42;;;1.80;;
19167;SDS011;9716;53.114;18.040;2023-06-14T15:26:20;3.25;;;1.40;;
19167;SDS011;9716;53.114;18.040;2023-06-14T15:28:50;4.88;;;1.70;;
19167;SDS011;9716;53.114;18.040;2023-06-14T15:31:19;3.63;;;1.50;;
19167;SDS011;9716;53.114;18.040;2023-06-14T15:33:49;2.80;;;1.60;;
19167;SDS011;9716;53.114;18.040;2023-06-14T15:36:17;6.18;;;1.52;;
19167;SDS011;9716;53.114;18.040;2023-06-14T15:38:46;1.90;;;1.70;;
19167;SDS011;9716;53.114;18.040;2023-06-14T15:41:14;3.15;;;1.75;;
19167;SDS011;9716;53.114;18.040;2023-06-14T15:43:43;2.35;;;1.70;;
19167;SDS011;9716;53.114;18.040;2023-06-14T15:46:11;1.60;;;1.35;;
19167;SDS011;9716;53.114;18.040;2023-06-14T15:48:40;3.83;;;2.13;;
19167;SDS011;9716;53.114;18.040;2023-06-14T15:51:10;8.23;;;1.35;;
19167;SDS011;9716;53.114;18.040;2023-06-14T15:53:39;2.75;;;1.75;;
19167;SDS011;9716;53.114;18.040;2023-06-14T15:56:07;4.05;;;1.85;;
19167;SDS011;9716;53.114;18.040;2023-06-14T15:58:36;4.13;;;1.85;;
19167;SDS011;9716;53.114;18.040;2023-06-14T16:01:04;2.58;;;1.85;;
19167;SDS011;9716;53.114;18.040;2023-06-14T16:03:32;4.05;;;1.90;;
19167;SDS011;9716;53.114;18.040;2023-06-14T16:06:01;1.92;;;1.70;;
19167;SDS011;9716;53.114;18.040;2023-06-14T16:08:32;2.17;;;1.83;;
19167;SDS011;9716;53.114;18.040;2023-06-14T16:11:07;1.75;;;1.40;;
19167;SDS011;9716;53.114;18.040;2023-06-14T16:13:36;2.08;;;1.80;;